Mare Frisium — PCBM — position and weather

sailwx.info

Track history (hours):
 
Tides and Currents Weather Stations Pressure Air Temp Water Temp Dewpoint Dewpoint Depression Visibility Wind Speed Wind Dir Waves Ship Positions

Mare Frisium (Netherlands)

Ship's website: http://www.tallship-company.com/mare-frisium-2/

Last reported at 2017-Nov-20 00:28 UTC. Time now 2017-Nov-20 15:39 UTC.
Position N 53°33' E 009°59'.

Length 49 m; draft 2.7 m.

Type: Sailing vessel. MMSI: 244596000.

Date/timePositionNaut miles runAvg speedWind from/ knotsBaromVisibWave heightAir tempDewpointWater temp
2017-Nov-20 00:28N 53°33' E 009°59'0 0.0
2017-Nov-19 23:58N 53°33' E 009°59'0 0.0
2017-Nov-19 23:28N 53°33' E 009°59'0 0.0
2017-Nov-19 22:58N 53°33' E 009°59'0 0.0
2017-Nov-19 22:28N 53°33' E 009°59'0 0.0
2017-Nov-19 21:58N 53°33' E 009°59'0 0.0
2017-Nov-19 21:28N 53°33' E 009°59'0 0.0
2017-Nov-19 20:55N 53°33' E 009°59'0 0.0
2017-Nov-19 20:28N 53°33' E 009°59'0 0.0
2017-Nov-19 19:58N 53°33' E 009°59'0 0.0
2017-Nov-19 19:28N 53°33' E 009°59'0 0.0
2017-Nov-19 18:58N 53°33' E 009°59'0 0.0
2017-Nov-19 18:28N 53°33' E 009°59'0 0.0
2017-Nov-19 17:58N 53°33' E 009°59'0 0.0
2017-Nov-19 17:28N 53°33' E 009°59'0 0.0
2017-Nov-19 16:58N 53°33' E 009°59'0 0.0
2017-Nov-19 16:28N 53°33' E 009°59'0 0.0
2017-Nov-19 15:58N 53°33' E 009°59'0 0.0
2017-Nov-19 15:28N 53°33' E 009°59'0 0.0
2017-Nov-19 14:58N 53°33' E 009°59'0 0.0
2017-Nov-19 14:28N 53°33' E 009°59'0 0.1
2017-Nov-19 14:00N 53°33' E 009°59'1 1.6
2017-Nov-19 13:31N 53°33' E 009°58'3 6.4
2017-Nov-19 13:00N 53°33' E 009°52'4 7.6
2017-Nov-19 12:30N 53°34' E 009°46'2 3.4
2017-Nov-19 12:00N 53°34' E 009°43'2 3.9
2017-Nov-19 11:30N 53°34' E 009°46'2 4.9
2017-Nov-19 11:00N 53°33' E 009°50'3 5.7
2017-Nov-19 10:30N 53°33' E 009°55'2 4.5
2017-Nov-19 09:59N 53°33' E 009°59'0 0.0
2017-Nov-19 09:29N 53°33' E 009°59'0 0.0
2017-Nov-19 08:59N 53°33' E 009°59'0 0.0
2017-Nov-19 08:29N 53°33' E 009°59'0 0.0
2017-Nov-19 08:00N 53°33' E 009°59'0 0.1
2017-Nov-19 07:29N 53°33' E 009°59'0 0.0
2017-Nov-19 06:59N 53°33' E 009°59'0 0.0
2017-Nov-19 06:29N 53°33' E 009°59'0 0.0
2017-Nov-19 06:00N 53°33' E 009°59'0 0.0
2017-Nov-19 05:29N 53°33' E 009°59'0 0.0
2017-Nov-19 04:56N 53°33' E 009°59'0 0.0
2017-Nov-19 04:29N 53°33' E 009°59'0 0.0
2017-Nov-19 03:59N 53°33' E 009°59'0 0.0
2017-Nov-19 03:29N 53°33' E 009°59'0 0.0
2017-Nov-19 02:59N 53°33' E 009°59'0 0.0
2017-Nov-19 02:29N 53°33' E 009°59'0 0.0
2017-Nov-19 01:59N 53°33' E 009°59'0 0.0
2017-Nov-19 01:29N 53°33' E 009°59'0 0.0
2017-Nov-19 00:59N 53°33' E 009°59'0 0.0
2017-Nov-19 00:29N 53°33' E 009°59'0 0.0
2017-Nov-18 23:59N 53°33' E 009°59'0 0.0
2017-Nov-18 23:29N 53°33' E 009°59'0 0.0
2017-Nov-18 22:59N 53°33' E 009°59'0 0.0
2017-Nov-18 22:29N 53°33' E 009°59'0 0.0
2017-Nov-18 21:59N 53°33' E 009°59'0 0.0
2017-Nov-18 21:29N 53°33' E 009°59'0 0.0
2017-Nov-18 20:59N 53°33' E 009°59'0 0.0
2017-Nov-18 20:29N 53°33' E 009°59'0 0.0
2017-Nov-18 19:59N 53°33' E 009°59'0 0.0
2017-Nov-18 19:29N 53°33' E 009°59'0 0.0
2017-Nov-18 18:59N 53°33' E 009°59'0 0.0
2017-Nov-18 18:29N 53°33' E 009°59'0 0.0
2017-Nov-18 17:59N 53°33' E 009°59'0 0.0
2017-Nov-18 17:29N 53°33' E 009°59'0 0.0
2017-Nov-18 16:59N 53°33' E 009°59'0 0.0
2017-Nov-18 16:29N 53°33' E 009°59'0 0.0
2017-Nov-18 15:59N 53°33' E 009°59'0 0.0
2017-Nov-18 15:29N 53°33' E 009°59'0 0.0
2017-Nov-18 14:59N 53°33' E 009°59'0 0.0
2017-Nov-18 14:29N 53°33' E 009°59'0 0.0
2017-Nov-18 13:59N 53°33' E 009°59'0 0.0
2017-Nov-18 13:29N 53°33' E 009°59'0 0.0
2017-Nov-18 12:59N 53°33' E 009°59'0 0.0
2017-Nov-18 12:29N 53°33' E 009°59'0 0.0
2017-Nov-18 11:59N 53°33' E 009°59'0 0.0
2017-Nov-18 11:29N 53°33' E 009°59'0 0.0
2017-Nov-18 10:59N 53°33' E 009°59'0 0.0
2017-Nov-18 10:29N 53°33' E 009°59'0 0.0
2017-Nov-18 09:59N 53°33' E 009°59'0 0.0
2017-Nov-18 09:29N 53°33' E 009°59'0 0.0
2017-Nov-18 08:59N 53°33' E 009°59'0 0.0
2017-Nov-18 08:29N 53°33' E 009°59'0 0.0
2017-Nov-18 07:59N 53°33' E 009°59'0 0.0
2017-Nov-18 07:29N 53°33' E 009°59'0 0.0
2017-Nov-18 06:59N 53°33' E 009°59'0 0.0
2017-Nov-18 06:29N 53°33' E 009°59'0 0.0
2017-Nov-18 05:59N 53°33' E 009°59'0 0.0
2017-Nov-18 05:29N 53°33' E 009°59'0 0.0
2017-Nov-18 04:59N 53°33' E 009°59'0 0.0
2017-Nov-18 04:29N 53°33' E 009°59'0 0.0
2017-Nov-18 03:59N 53°33' E 009°59'0 0.0
2017-Nov-18 03:30N 53°33' E 009°59'0 0.0
2017-Nov-18 02:59N 53°33' E 009°59'0 0.0
2017-Nov-18 02:29N 53°33' E 009°59'0 0.0
2017-Nov-18 01:59N 53°33' E 009°59'0 0.0
2017-Nov-18 01:29N 53°33' E 009°59'0 0.0
2017-Nov-18 00:59N 53°33' E 009°59'0 0.0
2017-Nov-18 00:30N 53°33' E 009°59'0 0.0
2017-Nov-17 23:59N 53°33' E 009°59'0 0.0
2017-Nov-17 23:29N 53°33' E 009°59'0 0.0
2017-Nov-17 23:00N 53°33' E 009°59'0 0.0
2017-Nov-17 22:30N 53°33' E 009°59'0 0.0
2017-Nov-17 22:00N 53°33' E 009°59'0 0.0
2017-Nov-17 21:30N 53°33' E 009°59'0 0.0
2017-Nov-17 21:00N 53°33' E 009°59'0 0.9
2017-Nov-17 20:30N 53°33' E 009°58'2 3.6
2017-Nov-17 20:00N 53°32' E 009°55'2 3.3
2017-Nov-17 19:30N 53°33' E 009°52'2 3.6
2017-Nov-17 19:00N 53°33' E 009°49'2 3.9
2017-Nov-17 18:30N 53°34' E 009°46'2 3.6
2017-Nov-17 18:00N 53°34' E 009°43'2 3.6
2017-Nov-17 17:30N 53°34' E 009°40'1 1.6
2017-Nov-17 17:00N 53°34' E 009°42'4 8.6
2017-Nov-17 16:30N 53°33' E 009°49'4 8.4
2017-Nov-17 16:00N 53°33' E 009°56'2 3.5
2017-Nov-17 15:29N 53°33' E 009°59'0 0.0
2017-Nov-17 14:59N 53°33' E 009°59'0 0.0
2017-Nov-17 14:29N 53°33' E 009°59'0 0.0
2017-Nov-17 14:00N 53°33' E 009°59'0 0.0
2017-Nov-17 13:30N 53°33' E 009°59'0 0.0
2017-Nov-17 13:00N 53°33' E 009°59'0 0.0
2017-Nov-17 12:30N 53°33' E 009°59'0 0.0
2017-Nov-17 12:00N 53°33' E 009°59'0 0.0
2017-Nov-17 11:30N 53°33' E 009°59'0 0.0
2017-Nov-17 11:00N 53°33' E 009°59'0 0.0
2017-Nov-17 10:30N 53°33' E 009°59'0 0.0
2017-Nov-17 10:00N 53°33' E 009°59'0 0.0
2017-Nov-17 09:30N 53°33' E 009°59'0 0.0
2017-Nov-17 09:00N 53°33' E 009°59'0 0.0
2017-Nov-17 08:30N 53°33' E 009°59'0 0.0
2017-Nov-17 08:00N 53°33' E 009°59'0 0.0
2017-Nov-17 07:30N 53°33' E 009°59'0 0.0
2017-Nov-17 07:00N 53°33' E 009°59'0 0.0
2017-Nov-17 06:30N 53°33' E 009°59'0 0.0
2017-Nov-17 06:00N 53°33' E 009°59'0 0.0
2017-Nov-17 05:30N 53°33' E 009°59'0 0.0
2017-Nov-17 05:00N 53°33' E 009°59'0 0.0
2017-Nov-17 04:30N 53°33' E 009°59'0 0.0
2017-Nov-17 04:00N 53°33' E 009°59'0 0.0
2017-Nov-17 03:30N 53°33' E 009°59'0 0.0
2017-Nov-17 03:00N 53°33' E 009°59'0 0.0
2017-Nov-17 02:30N 53°33' E 009°59'0 0.0
2017-Nov-17 02:00N 53°33' E 009°59'0 0.0
2017-Nov-17 01:30N 53°33' E 009°59'0 0.0
2017-Nov-17 01:00N 53°33' E 009°59'0 0.0
2017-Nov-17 00:30N 53°33' E 009°59'0 0.0
2017-Nov-17 00:00N 53°33' E 009°59'0 0.0
2017-Nov-16 23:30N 53°33' E 009°59'0 0.0
2017-Nov-16 23:00N 53°33' E 009°59'0 0.0
2017-Nov-16 22:30N 53°33' E 009°59'0 0.0
2017-Nov-16 22:00N 53°33' E 009°59'0 0.0
2017-Nov-16 21:30N 53°33' E 009°59'0 0.0
2017-Nov-16 21:00N 53°33' E 009°59'0 0.0
2017-Nov-16 20:30N 53°33' E 009°59'0 0.0
2017-Nov-16 20:00N 53°33' E 009°59'0 0.0
2017-Nov-16 19:30N 53°33' E 009°59'0 0.0
2017-Nov-16 19:00N 53°33' E 009°59'0 0.0
2017-Nov-16 18:30N 53°33' E 009°59'0 0.0
2017-Nov-16 18:00N 53°33' E 009°59'0 0.0
2017-Nov-16 17:30N 53°33' E 009°59'0 0.0
2017-Nov-16 17:00N 53°33' E 009°59'0 0.0
2017-Nov-16 16:30N 53°33' E 009°59'0 0.0
2017-Nov-16 16:00N 53°33' E 009°59'0 0.0
2017-Nov-16 15:30N 53°33' E 009°59'0 0.0
2017-Nov-16 15:00N 53°33' E 009°59'0 0.0
2017-Nov-16 14:30N 53°33' E 009°59'0 0.0
2017-Nov-16 14:00N 53°33' E 009°59'0 0.0
2017-Nov-16 13:30N 53°33' E 009°59'0 0.0
2017-Nov-16 13:00N 53°33' E 009°59'0 0.0
2017-Nov-16 12:30N 53°33' E 009°59'0 0.0
2017-Nov-16 12:00N 53°33' E 009°59'0 0.0
2017-Nov-16 11:30N 53°33' E 009°59'0 0.0
2017-Nov-16 11:00N 53°33' E 009°59'0 0.0
2017-Nov-16 10:30N 53°33' E 009°59'0 0.0
2017-Nov-16 10:00N 53°33' E 009°59'0 0.0
2017-Nov-16 09:30N 53°33' E 009°59'0 0.0
2017-Nov-16 09:00N 53°33' E 009°59'0 0.0
2017-Nov-16 08:30N 53°33' E 009°59'0 0.0
2017-Nov-16 08:00N 53°33' E 009°59'0 0.0
2017-Nov-16 07:30N 53°33' E 009°59'0 0.0
2017-Nov-16 07:00N 53°33' E 009°59'0 0.0
2017-Nov-16 06:30N 53°33' E 009°59'0 0.0
2017-Nov-16 06:00N 53°33' E 009°59'0 0.0
2017-Nov-16 05:30N 53°33' E 009°59'0 0.0
2017-Nov-16 05:00N 53°33' E 009°59'0 0.0
2017-Nov-16 04:30N 53°33' E 009°59'0 0.0
2017-Nov-16 04:00N 53°33' E 009°59'0 0.0
2017-Nov-16 03:30N 53°33' E 009°59'0 0.0
2017-Nov-16 03:00N 53°33' E 009°59'0 0.0
2017-Nov-16 02:30N 53°33' E 009°59'0 0.0
2017-Nov-16 02:00N 53°33' E 009°59'0 0.0
2017-Nov-16 01:30N 53°33' E 009°59'0 0.0
2017-Nov-16 01:00N 53°33' E 009°59'0 0.0
2017-Nov-16 00:30N 53°33' E 009°59'0 0.0
2017-Nov-16 00:00N 53°33' E 009°59'0 0.0
2017-Nov-15 23:30N 53°33' E 009°59'0 0.0
2017-Nov-15 23:00N 53°33' E 009°59'0 0.0
2017-Nov-15 22:30N 53°33' E 009°59'0 0.0
2017-Nov-15 22:00N 53°33' E 009°59'0 0.0
2017-Nov-15 21:30N 53°33' E 009°59'0 0.0
2017-Nov-15 21:00N 53°33' E 009°59'0 0.0
2017-Nov-15 20:30N 53°33' E 009°59'0 0.0
2017-Nov-15 20:00N 53°33' E 009°59'0 0.0
2017-Nov-15 19:30N 53°33' E 009°59'0 0.0
2017-Nov-15 19:00N 53°33' E 009°59'0 0.0
2017-Nov-15 18:30N 53°33' E 009°59'0 0.0
2017-Nov-15 18:00N 53°33' E 009°59'0 0.0
2017-Nov-15 17:30N 53°33' E 009°59'0 0.0
2017-Nov-15 17:00N 53°33' E 009°59'0 0.0
2017-Nov-15 16:30N 53°33' E 009°59'0 0.0
2017-Nov-15 16:00N 53°33' E 009°59'0 0.0
2017-Nov-15 15:30N 53°33' E 009°59'0 0.0
2017-Nov-15 15:00N 53°33' E 009°59'0 0.0
2017-Nov-15 14:30N 53°33' E 009°59'0 0.0
2017-Nov-15 13:59N 53°33' E 009°59'0 0.0
2017-Nov-15 13:29N 53°33' E 009°59'0 0.0
2017-Nov-15 12:59N 53°33' E 009°59'0 0.0
2017-Nov-15 12:29N 53°33' E 009°59'0 0.0
2017-Nov-15 11:56N 53°33' E 009°59'0 0.0
2017-Nov-15 11:29N 53°33' E 009°59'0 0.0
2017-Nov-15 10:59N 53°33' E 009°59'0 0.0
2017-Nov-15 10:29N 53°33' E 009°59'0 0.0
2017-Nov-15 09:59N 53°33' E 009°59'0 0.0
2017-Nov-15 09:29N 53°33' E 009°59'0 0.0
2017-Nov-15 08:59N 53°33' E 009°59'0 0.0
2017-Nov-15 08:29N 53°33' E 009°59'0 0.0
2017-Nov-15 07:59N 53°33' E 009°59'0 0.0
2017-Nov-15 07:29N 53°33' E 009°59'0 0.0
2017-Nov-15 06:59N 53°33' E 009°59'0 0.0
2017-Nov-15 06:29N 53°33' E 009°59'0 0.0
2017-Nov-15 05:59N 53°33' E 009°59'0 0.0
2017-Nov-15 05:29N 53°33' E 009°59'0 0.0
2017-Nov-15 04:59N 53°33' E 009°59'0 0.0
2017-Nov-15 04:29N 53°33' E 009°59'0 0.0
2017-Nov-15 03:59N 53°33' E 009°59'0 0.0
2017-Nov-15 03:29N 53°33' E 009°59'0 0.0
2017-Nov-15 02:59N 53°33' E 009°59'0 0.0
2017-Nov-15 02:29N 53°33' E 009°59'0 0.0
2017-Nov-15 01:59N 53°33' E 009°59'0 0.0
2017-Nov-15 01:29N 53°33' E 009°59'0 0.0
2017-Nov-15 00:59N 53°33' E 009°59'0 0.0
2017-Nov-15 00:29N 53°33' E 009°59'0 0.0
2017-Nov-14 23:59N 53°33' E 009°59'0 0.0
2017-Nov-14 23:29N 53°33' E 009°59'0 0.0
2017-Nov-14 22:59N 53°33' E 009°59'0 0.0
2017-Nov-14 22:29N 53°33' E 009°59'0 0.0
2017-Nov-14 21:59N 53°33' E 009°59'0 0.0
2017-Nov-14 21:29N 53°33' E 009°59'0 0.0
2017-Nov-14 20:59N 53°33' E 009°59'0 0.0
2017-Nov-14 20:29N 53°33' E 009°59'0 0.0
2017-Nov-14 19:59N 53°33' E 009°59'0 0.0
2017-Nov-14 19:29N 53°33' E 009°59'0 0.0
2017-Nov-14 18:59N 53°33' E 009°59'0 0.0
2017-Nov-14 18:29N 53°33' E 009°59'0 0.0
2017-Nov-14 17:56N 53°33' E 009°59'0 0.0
2017-Nov-14 17:29N 53°33' E 009°59'0 0.0
2017-Nov-14 16:59N 53°33' E 009°59'0 0.0
2017-Nov-14 16:29N 53°33' E 009°59'0 0.0
2017-Nov-14 15:59N 53°33' E 009°59'0 0.0
2017-Nov-14 15:29N 53°33' E 009°59'0 0.0
2017-Nov-14 14:59N 53°33' E 009°59'0 0.0
2017-Nov-14 14:29N 53°33' E 009°59'0 0.0
2017-Nov-14 13:59N 53°33' E 009°59'0 0.0
2017-Nov-14 13:29N 53°33' E 009°59'0 0.0
2017-Nov-14 12:59N 53°33' E 009°59'0 0.0
2017-Nov-14 12:29N 53°33' E 009°59'0 0.0
2017-Nov-14 11:59N 53°33' E 009°59'0 0.0
2017-Nov-14 11:29N 53°33' E 009°59'0 0.0
2017-Nov-14 10:59N 53°33' E 009°59'0 0.0
2017-Nov-14 10:29N 53°33' E 009°59'0 0.0
2017-Nov-14 09:59N 53°33' E 009°59'0 0.0
2017-Nov-14 09:29N 53°33' E 009°59'0 0.0
2017-Nov-14 08:59N 53°33' E 009°59'0 0.0
2017-Nov-14 08:29N 53°33' E 009°59'0 0.0
2017-Nov-14 07:59N 53°33' E 009°59'0 0.0
2017-Nov-14 07:29N 53°33' E 009°59'0 0.0
2017-Nov-14 06:59N 53°33' E 009°59'0 0.0
2017-Nov-14 06:29N 53°33' E 009°59'0 0.0
2017-Nov-14 05:59N 53°33' E 009°59'0 0.0
2017-Nov-14 05:29N 53°33' E 009°59'0 0.0
2017-Nov-14 04:59N 53°33' E 009°59'0 0.0
2017-Nov-14 04:29N 53°33' E 009°59'0 0.0
2017-Nov-14 03:59N 53°33' E 009°59'0 0.0
2017-Nov-14 03:29N 53°33' E 009°59'0 0.0
2017-Nov-14 02:59N 53°33' E 009°59'0 0.0
2017-Nov-14 02:29N 53°33' E 009°59'0 0.0
2017-Nov-14 01:59N 53°33' E 009°59'0 0.0
2017-Nov-14 01:29N 53°33' E 009°59'0 0.0
2017-Nov-14 00:59N 53°33' E 009°59'0 0.0
2017-Nov-14 00:29N 53°33' E 009°59'0 0.0
2017-Nov-13 23:59N 53°33' E 009°59'0 0.0
2017-Nov-13 23:29N 53°33' E 009°59'0 0.0
2017-Nov-13 22:59N 53°33' E 009°59'0 0.0
2017-Nov-13 22:29N 53°33' E 009°59'0 0.0
2017-Nov-13 21:59N 53°33' E 009°59'0 0.0
2017-Nov-13 01:58N 53°33' E 009°59'0 0.0
2017-Nov-13 01:29N 53°33' E 009°59'0 0.0
2017-Nov-13 00:58N 53°33' E 009°59'0 0.0
2017-Nov-13 00:28N 53°33' E 009°59'0 0.0
2017-Nov-12 23:59N 53°33' E 009°59'0 0.0
2017-Nov-12 23:28N 53°33' E 009°59'0 0.0
2017-Nov-12 22:58N 53°33' E 009°59'0 0.0
2017-Nov-12 22:28N 53°33' E 009°59'0 0.0
2017-Nov-12 21:58N 53°33' E 009°59'0 0.0
2017-Nov-12 21:28N 53°33' E 009°59'0 0.0
2017-Nov-12 20:58N 53°33' E 009°59'0 0.0
2017-Nov-12 20:29N 53°33' E 009°59'0 0.0
2017-Nov-12 19:58N 53°33' E 009°59'0 0.0
2017-Nov-12 19:28N 53°33' E 009°59'0 0.1
2017-Nov-12 19:00N 53°33' E 009°59'2 3.8
2017-Nov-12 18:30N 53°32' E 009°56'3 6.9
2017-Nov-12 18:01N 53°33' E 009°50'3 5.9
2017-Nov-12 17:30N 53°34' E 009°45'2 3.8
2017-Nov-12 17:00N 53°34' E 009°42'0 0.3
2017-Nov-12 16:30N 53°34' E 009°42'4 7.4
2017-Nov-12 16:00N 53°33' E 009°48'4 7.4
2017-Nov-12 15:30N 53°33' E 009°54'3 5.5
2017-Nov-12 15:00N 53°33' E 009°59'0 0.0
2017-Nov-12 14:31N 53°33' E 009°59'0 0.2
2017-Nov-12 14:01N 53°33' E 009°59'3 6.1
2017-Nov-12 13:31N 53°32' E 009°54'2 4.4
2017-Nov-12 13:01N 53°33' E 009°50'2 3.2
2017-Nov-12 12:31N 53°33' E 009°47'2 3.2
2017-Nov-12 12:00N 53°34' E 009°45'1 2.6
2017-Nov-12 11:31N 53°34' E 009°43'2 4.2
2017-Nov-12 11:01N 53°34' E 009°46'4 8.7
2017-Nov-12 10:30N 53°33' E 009°53'3 6.8
2017-Nov-12 10:00N 53°33' E 009°59'0 0.0
2017-Nov-12 09:29N 53°33' E 009°59'0 0.0
2017-Nov-12 08:59N 53°33' E 009°59'0 0.0
2017-Nov-12 08:29N 53°33' E 009°59'0 0.0
2017-Nov-12 07:59N 53°33' E 009°59'0 0.1
2017-Nov-12 07:30N 53°33' E 009°59'0 0.0
2017-Nov-12 07:00N 53°33' E 009°59'0 0.0
2017-Nov-12 06:30N 53°33' E 009°59'0 0.0
2017-Nov-12 06:00N 53°33' E 009°59'0 0.0
2017-Nov-12 05:30N 53°33' E 009°59'0 0.0
2017-Nov-12 05:00N 53°33' E 009°59'0 0.0
2017-Nov-12 04:30N 53°33' E 009°59'0 0.0
2017-Nov-12 04:00N 53°33' E 009°59'0 0.0
2017-Nov-12 03:30N 53°33' E 009°59'0 0.0
2017-Nov-12 03:00N 53°33' E 009°59'0 0.0
2017-Nov-12 02:30N 53°33' E 009°59'0 0.0
2017-Nov-12 02:00N 53°33' E 009°59'0 0.0
2017-Nov-12 01:27N 53°33' E 009°59'0 0.0
2017-Nov-12 01:00N 53°33' E 009°59'0 0.0
2017-Nov-12 00:27N 53°33' E 009°59'0 0.0
2017-Nov-12 00:00N 53°33' E 009°59'0 0.0
2017-Nov-11 23:30N 53°33' E 009°59'0 0.0
2017-Nov-11 23:00N 53°33' E 009°59'0 0.0
2017-Nov-11 22:30N 53°33' E 009°59'0 0.0
2017-Nov-11 22:00N 53°33' E 009°59'0 0.0
2017-Nov-11 21:30N 53°33' E 009°59'0 0.0
2017-Nov-11 21:00N 53°33' E 009°59'0 0.0
2017-Nov-11 20:30N 53°33' E 009°59'0 0.0
2017-Nov-11 20:00N 53°33' E 009°59'0 0.0
2017-Nov-11 19:30N 53°33' E 009°59'0 0.0
2017-Nov-11 19:00N 53°33' E 009°59'0 0.0
2017-Nov-11 18:30N 53°33' E 009°59'0 0.0
2017-Nov-11 18:00N 53°33' E 009°59'0 0.0
2017-Nov-11 17:30N 53°33' E 009°59'0 0.0
2017-Nov-11 17:00N 53°33' E 009°59'0 0.0
2017-Nov-11 16:30N 53°33' E 009°59'0 0.0
2017-Nov-11 16:00N 53°33' E 009°59'0 0.0
2017-Nov-11 15:30N 53°33' E 009°59'0 0.0
2017-Nov-11 15:00N 53°33' E 009°59'0 0.0
2017-Nov-11 14:30N 53°33' E 009°59'0 0.0
2017-Nov-11 14:00N 53°33' E 009°59'0 0.0
2017-Nov-11 13:30N 53°33' E 009°59'0 0.0
2017-Nov-11 13:00N 53°33' E 009°59'0 0.0
2017-Nov-11 12:30N 53°33' E 009°59'0 0.0
2017-Nov-11 12:00N 53°33' E 009°59'0 0.0
2017-Nov-11 11:30N 53°33' E 009°59'0 0.0
2017-Nov-11 11:00N 53°33' E 009°59'0 0.0
2017-Nov-11 10:30N 53°33' E 009°59'0 0.0
2017-Nov-11 10:00N 53°33' E 009°59'0 0.0
2017-Nov-11 09:30N 53°33' E 009°59'0 0.0
2017-Nov-11 09:00N 53°33' E 009°59'0 0.0
2017-Nov-11 08:30N 53°33' E 009°59'0 0.0
2017-Nov-11 08:00N 53°33' E 009°59'0 0.0
2017-Nov-11 07:30N 53°33' E 009°59'0 0.0
2017-Nov-11 07:00N 53°33' E 009°59'0 0.0
2017-Nov-11 06:30N 53°33' E 009°59'0 0.0
2017-Nov-11 06:00N 53°33' E 009°59'0 0.0
2017-Nov-11 05:30N 53°33' E 009°59'0 0.0
2017-Nov-11 05:00N 53°33' E 009°59'0 0.0
2017-Nov-11 04:30N 53°33' E 009°59'0 0.0
2017-Nov-11 04:00N 53°33' E 009°59'0 0.0
2017-Nov-11 03:30N 53°33' E 009°59'0 0.0
2017-Nov-11 03:00N 53°33' E 009°59'0 0.0
2017-Nov-11 02:30N 53°33' E 009°59'0 0.0
2017-Nov-11 02:00N 53°33' E 009°59'0 0.0
2017-Nov-11 01:30N 53°33' E 009°59'0 0.0
2017-Nov-11 01:00N 53°33' E 009°59'0 0.0
2017-Nov-11 00:30N 53°33' E 009°59'0 0.0
2017-Nov-11 00:00N 53°33' E 009°59'0 0.0
2017-Nov-10 23:24N 53°33' E 009°59'0 0.0
2017-Nov-10 23:00N 53°33' E 009°59'0 0.0
2017-Nov-10 22:27N 53°33' E 009°59'0 0.0
2017-Nov-10 22:00N 53°33' E 009°59'0 0.0
2017-Nov-10 21:30N 53°33' E 009°59'0 0.0
2017-Nov-10 21:00N 53°33' E 009°59'0 0.0
2017-Nov-10 20:30N 53°33' E 009°59'0 0.0
2017-Nov-10 20:00N 53°33' E 009°59'0 0.0
2017-Nov-10 19:30N 53°33' E 009°59'0 0.0
2017-Nov-10 19:00N 53°33' E 009°59'0 0.0
2017-Nov-10 18:30N 53°33' E 009°59'0 0.0
2017-Nov-10 18:00N 53°33' E 009°59'0 0.0
2017-Nov-10 17:30N 53°33' E 009°59'0 0.0
2017-Nov-10 17:00N 53°33' E 009°59'0 0.0
2017-Nov-10 16:30N 53°33' E 009°59'0 0.0
2017-Nov-10 16:00N 53°33' E 009°59'0 0.0
2017-Nov-10 15:30N 53°33' E 009°59'0 0.0
2017-Nov-10 15:00N 53°33' E 009°59'0 0.0
2017-Nov-10 14:30N 53°33' E 009°59'0 0.0
2017-Nov-10 14:00N 53°33' E 009°59'0 0.0
2017-Nov-10 13:30N 53°33' E 009°59'0 0.0
2017-Nov-10 13:00N 53°33' E 009°59'0 0.0
2017-Nov-10 12:30N 53°33' E 009°59'0 0.0
2017-Nov-10 12:00N 53°33' E 009°59'0 0.0
2017-Nov-10 11:30N 53°33' E 009°59'0 0.0
2017-Nov-10 11:00N 53°33' E 009°59'0 0.0
2017-Nov-10 10:30N 53°33' E 009°59'0 0.0
2017-Nov-10 10:00N 53°33' E 009°59'0 0.0
2017-Nov-10 09:30N 53°33' E 009°59'0 0.0
2017-Nov-10 09:00N 53°33' E 009°59'0 0.0
2017-Nov-10 08:30N 53°33' E 009°59'0 0.0
2017-Nov-10 08:00N 53°33' E 009°59'0 0.0
2017-Nov-10 07:30N 53°33' E 009°59'0 0.0
2017-Nov-10 07:00N 53°33' E 009°59'0 0.0
2017-Nov-10 06:30N 53°33' E 009°59'0 0.0
2017-Nov-10 06:00N 53°33' E 009°59'0 0.0
2017-Nov-10 05:30N 53°33' E 009°59'0 0.0
2017-Nov-10 05:00N 53°33' E 009°59'0 0.0
2017-Nov-10 04:30N 53°33' E 009°59'0 0.0
2017-Nov-10 04:00N 53°33' E 009°59'0 0.0
2017-Nov-10 03:30N 53°33' E 009°59'0 0.0
2017-Nov-10 03:00N 53°33' E 009°59'0 0.0
2017-Nov-10 02:30N 53°33' E 009°59'0 0.0
2017-Nov-10 02:00N 53°33' E 009°59'0 0.0
2017-Nov-10 01:30N 53°33' E 009°59'0 0.0
2017-Nov-10 01:00N 53°33' E 009°59'0 0.0
2017-Nov-10 00:30N 53°33' E 009°59'  
Track history (hours):
 
Tides and Currents Weather Stations Pressure Air Temp Water Temp Dewpoint Dewpoint Depression Visibility Wind Speed Wind Dir Waves Ship Positions

Mare Frisium (Netherlands)

Ship's website: http://www.tallship-company.com/mare-frisium-2/

Last reported at 2017-Nov-20 00:28 UTC. Time now 2017-Nov-20 15:39 UTC.
Position N 53°33' E 009°59'.

Length 49 m; draft 2.7 m.

Type: Sailing vessel. MMSI: 244596000.

Date/timePositionNaut miles runAvg speedWind from/ knotsBaromVisibWave heightAir tempDewpointWater temp
2017-Nov-20 00:28N 53°33' E 009°59'0 0.0
2017-Nov-19 23:58N 53°33' E 009°59'0 0.0
2017-Nov-19 23:28N 53°33' E 009°59'0 0.0
2017-Nov-19 22:58N 53°33' E 009°59'0 0.0
2017-Nov-19 22:28N 53°33' E 009°59'0 0.0
2017-Nov-19 21:58N 53°33' E 009°59'0 0.0
2017-Nov-19 21:28N 53°33' E 009°59'0 0.0
2017-Nov-19 20:55N 53°33' E 009°59'0 0.0
2017-Nov-19 20:28N 53°33' E 009°59'0 0.0
2017-Nov-19 19:58N 53°33' E 009°59'0 0.0
2017-Nov-19 19:28N 53°33' E 009°59'0 0.0
2017-Nov-19 18:58N 53°33' E 009°59'0 0.0
2017-Nov-19 18:28N 53°33' E 009°59'0 0.0
2017-Nov-19 17:58N 53°33' E 009°59'0 0.0
2017-Nov-19 17:28N 53°33' E 009°59'0 0.0
2017-Nov-19 16:58N 53°33' E 009°59'0 0.0
2017-Nov-19 16:28N 53°33' E 009°59'0 0.0
2017-Nov-19 15:58N 53°33' E 009°59'0 0.0
2017-Nov-19 15:28N 53°33' E 009°59'0 0.0
2017-Nov-19 14:58N 53°33' E 009°59'0 0.0
2017-Nov-19 14:28N 53°33' E 009°59'0 0.1
2017-Nov-19 14:00N 53°33' E 009°59'1 1.6
2017-Nov-19 13:31N 53°33' E 009°58'3 6.4
2017-Nov-19 13:00N 53°33' E 009°52'4 7.6
2017-Nov-19 12:30N 53°34' E 009°46'2 3.4
2017-Nov-19 12:00N 53°34' E 009°43'2 3.9
2017-Nov-19 11:30N 53°34' E 009°46'2 4.9
2017-Nov-19 11:00N 53°33' E 009°50'3 5.7
2017-Nov-19 10:30N 53°33' E 009°55'2 4.5
2017-Nov-19 09:59N 53°33' E 009°59'0 0.0
2017-Nov-19 09:29N 53°33' E 009°59'0 0.0
2017-Nov-19 08:59N 53°33' E 009°59'0 0.0
2017-Nov-19 08:29N 53°33' E 009°59'0 0.0
2017-Nov-19 08:00N 53°33' E 009°59'0 0.1
2017-Nov-19 07:29N 53°33' E 009°59'0 0.0
2017-Nov-19 06:59N 53°33' E 009°59'0 0.0
2017-Nov-19 06:29N 53°33' E 009°59'0 0.0
2017-Nov-19 06:00N 53°33' E 009°59'0 0.0
2017-Nov-19 05:29N 53°33' E 009°59'0 0.0
2017-Nov-19 04:56N 53°33' E 009°59'0 0.0
2017-Nov-19 04:29N 53°33' E 009°59'0 0.0
2017-Nov-19 03:59N 53°33' E 009°59'0 0.0
2017-Nov-19 03:29N 53°33' E 009°59'0 0.0
2017-Nov-19 02:59N 53°33' E 009°59'0 0.0
2017-Nov-19 02:29N 53°33' E 009°59'0 0.0
2017-Nov-19 01:59N 53°33' E 009°59'0 0.0
2017-Nov-19 01:29N 53°33' E 009°59'0 0.0
2017-Nov-19 00:59N 53°33' E 009°59'0 0.0
2017-Nov-19 00:29N 53°33' E 009°59'0 0.0
2017-Nov-18 23:59N 53°33' E 009°59'0 0.0
2017-Nov-18 23:29N 53°33' E 009°59'0 0.0
2017-Nov-18 22:59N 53°33' E 009°59'0 0.0
2017-Nov-18 22:29N 53°33' E 009°59'0 0.0
2017-Nov-18 21:59N 53°33' E 009°59'0 0.0
2017-Nov-18 21:29N 53°33' E 009°59'0 0.0
2017-Nov-18 20:59N 53°33' E 009°59'0 0.0
2017-Nov-18 20:29N 53°33' E 009°59'0 0.0
2017-Nov-18 19:59N 53°33' E 009°59'0 0.0
2017-Nov-18 19:29N 53°33' E 009°59'0 0.0
2017-Nov-18 18:59N 53°33' E 009°59'0 0.0
2017-Nov-18 18:29N 53°33' E 009°59'0 0.0
2017-Nov-18 17:59N 53°33' E 009°59'0 0.0
2017-Nov-18 17:29N 53°33' E 009°59'0 0.0
2017-Nov-18 16:59N 53°33' E 009°59'0 0.0
2017-Nov-18 16:29N 53°33' E 009°59'0 0.0
2017-Nov-18 15:59N 53°33' E 009°59'0 0.0
2017-Nov-18 15:29N 53°33' E 009°59'0 0.0
2017-Nov-18 14:59N 53°33' E 009°59'0 0.0
2017-Nov-18 14:29N 53°33' E 009°59'0 0.0
2017-Nov-18 13:59N 53°33' E 009°59'0 0.0
2017-Nov-18 13:29N 53°33' E 009°59'0 0.0
2017-Nov-18 12:59N 53°33' E 009°59'0 0.0
2017-Nov-18 12:29N 53°33' E 009°59'0 0.0
2017-Nov-18 11:59N 53°33' E 009°59'0 0.0
2017-Nov-18 11:29N 53°33' E 009°59'0 0.0
2017-Nov-18 10:59N 53°33' E 009°59'0 0.0
2017-Nov-18 10:29N 53°33' E 009°59'0 0.0
2017-Nov-18 09:59N 53°33' E 009°59'0 0.0
2017-Nov-18 09:29N 53°33' E 009°59'0 0.0
2017-Nov-18 08:59N 53°33' E 009°59'0 0.0
2017-Nov-18 08:29N 53°33' E 009°59'0 0.0
2017-Nov-18 07:59N 53°33' E 009°59'0 0.0
2017-Nov-18 07:29N 53°33' E 009°59'0 0.0
2017-Nov-18 06:59N 53°33' E 009°59'0 0.0
2017-Nov-18 06:29N 53°33' E 009°59'0 0.0
2017-Nov-18 05:59N 53°33' E 009°59'0 0.0
2017-Nov-18 05:29N 53°33' E 009°59'0 0.0
2017-Nov-18 04:59N 53°33' E 009°59'0 0.0
2017-Nov-18 04:29N 53°33' E 009°59'0 0.0
2017-Nov-18 03:59N 53°33' E 009°59'0 0.0
2017-Nov-18 03:30N 53°33' E 009°59'0 0.0
2017-Nov-18 02:59N 53°33' E 009°59'0 0.0
2017-Nov-18 02:29N 53°33' E 009°59'0 0.0
2017-Nov-18 01:59N 53°33' E 009°59'0 0.0
2017-Nov-18 01:29N 53°33' E 009°59'0 0.0
2017-Nov-18 00:59N 53°33' E 009°59'0 0.0
2017-Nov-18 00:30N 53°33' E 009°59'0 0.0
2017-Nov-17 23:59N 53°33' E 009°59'0 0.0
2017-Nov-17 23:29N 53°33' E 009°59'0 0.0
2017-Nov-17 23:00N 53°33' E 009°59'0 0.0
2017-Nov-17 22:30N 53°33' E 009°59'0 0.0
2017-Nov-17 22:00N 53°33' E 009°59'0 0.0
2017-Nov-17 21:30N 53°33' E 009°59'0 0.0
2017-Nov-17 21:00N 53°33' E 009°59'0 0.9
2017-Nov-17 20:30N 53°33' E 009°58'2 3.6
2017-Nov-17 20:00N 53°32' E 009°55'2 3.3
2017-Nov-17 19:30N 53°33' E 009°52'2 3.6
2017-Nov-17 19:00N 53°33' E 009°49'2 3.9
2017-Nov-17 18:30N 53°34' E 009°46'2 3.6
2017-Nov-17 18:00N 53°34' E 009°43'2 3.6
2017-Nov-17 17:30N 53°34' E 009°40'1 1.6
2017-Nov-17 17:00N 53°34' E 009°42'4 8.6
2017-Nov-17 16:30N 53°33' E 009°49'4 8.4
2017-Nov-17 16:00N 53°33' E 009°56'2 3.5
2017-Nov-17 15:29N 53°33' E 009°59'0 0.0
2017-Nov-17 14:59N 53°33' E 009°59'0 0.0
2017-Nov-17 14:29N 53°33' E 009°59'0 0.0
2017-Nov-17 14:00N 53°33' E 009°59'0 0.0
2017-Nov-17 13:30N 53°33' E 009°59'0 0.0
2017-Nov-17 13:00N 53°33' E 009°59'0 0.0
2017-Nov-17 12:30N 53°33' E 009°59'0 0.0
2017-Nov-17 12:00N 53°33' E 009°59'0 0.0
2017-Nov-17 11:30N 53°33' E 009°59'0 0.0
2017-Nov-17 11:00N 53°33' E 009°59'0 0.0
2017-Nov-17 10:30N 53°33' E 009°59'0 0.0
2017-Nov-17 10:00N 53°33' E 009°59'0 0.0
2017-Nov-17 09:30N 53°33' E 009°59'0 0.0
2017-Nov-17 09:00N 53°33' E 009°59'0 0.0
2017-Nov-17 08:30N 53°33' E 009°59'0 0.0
2017-Nov-17 08:00N 53°33' E 009°59'0 0.0
2017-Nov-17 07:30N 53°33' E 009°59'0 0.0
2017-Nov-17 07:00N 53°33' E 009°59'0 0.0
2017-Nov-17 06:30N 53°33' E 009°59'0 0.0
2017-Nov-17 06:00N 53°33' E 009°59'0 0.0
2017-Nov-17 05:30N 53°33' E 009°59'0 0.0
2017-Nov-17 05:00N 53°33' E 009°59'0 0.0
2017-Nov-17 04:30N 53°33' E 009°59'0 0.0
2017-Nov-17 04:00N 53°33' E 009°59'0 0.0
2017-Nov-17 03:30N 53°33' E 009°59'0 0.0
2017-Nov-17 03:00N 53°33' E 009°59'0 0.0
2017-Nov-17 02:30N 53°33' E 009°59'0 0.0
2017-Nov-17 02:00N 53°33' E 009°59'0 0.0
2017-Nov-17 01:30N 53°33' E 009°59'0 0.0
2017-Nov-17 01:00N 53°33' E 009°59'0 0.0
2017-Nov-17 00:30N 53°33' E 009°59'0 0.0
2017-Nov-17 00:00N 53°33' E 009°59'0 0.0
2017-Nov-16 23:30N 53°33' E 009°59'0 0.0
2017-Nov-16 23:00N 53°33' E 009°59'0 0.0
2017-Nov-16 22:30N 53°33' E 009°59'0 0.0
2017-Nov-16 22:00N 53°33' E 009°59'0 0.0
2017-Nov-16 21:30N 53°33' E 009°59'0 0.0
2017-Nov-16 21:00N 53°33' E 009°59'0 0.0
2017-Nov-16 20:30N 53°33' E 009°59'0 0.0
2017-Nov-16 20:00N 53°33' E 009°59'0 0.0
2017-Nov-16 19:30N 53°33' E 009°59'0 0.0
2017-Nov-16 19:00N 53°33' E 009°59'0 0.0
2017-Nov-16 18:30N 53°33' E 009°59'0 0.0
2017-Nov-16 18:00N 53°33' E 009°59'0 0.0
2017-Nov-16 17:30N 53°33' E 009°59'0 0.0
2017-Nov-16 17:00N 53°33' E 009°59'0 0.0
2017-Nov-16 16:30N 53°33' E 009°59'0 0.0
2017-Nov-16 16:00N 53°33' E 009°59'0 0.0
2017-Nov-16 15:30N 53°33' E 009°59'0 0.0
2017-Nov-16 15:00N 53°33' E 009°59'0 0.0
2017-Nov-16 14:30N 53°33' E 009°59'0 0.0
2017-Nov-16 14:00N 53°33' E 009°59'0 0.0
2017-Nov-16 13:30N 53°33' E 009°59'0 0.0
2017-Nov-16 13:00N 53°33' E 009°59'0 0.0
2017-Nov-16 12:30N 53°33' E 009°59'0 0.0
2017-Nov-16 12:00N 53°33' E 009°59'0 0.0
2017-Nov-16 11:30N 53°33' E 009°59'0 0.0
2017-Nov-16 11:00N 53°33' E 009°59'0 0.0
2017-Nov-16 10:30N 53°33' E 009°59'0 0.0
2017-Nov-16 10:00N 53°33' E 009°59'0 0.0
2017-Nov-16 09:30N 53°33' E 009°59'0 0.0
2017-Nov-16 09:00N 53°33' E 009°59'0 0.0
2017-Nov-16 08:30N 53°33' E 009°59'0 0.0
2017-Nov-16 08:00N 53°33' E 009°59'0 0.0
2017-Nov-16 07:30N 53°33' E 009°59'0 0.0
2017-Nov-16 07:00N 53°33' E 009°59'0 0.0
2017-Nov-16 06:30N 53°33' E 009°59'0 0.0
2017-Nov-16 06:00N 53°33' E 009°59'0 0.0
2017-Nov-16 05:30N 53°33' E 009°59'0 0.0
2017-Nov-16 05:00N 53°33' E 009°59'0 0.0
2017-Nov-16 04:30N 53°33' E 009°59'0 0.0
2017-Nov-16 04:00N 53°33' E 009°59'0 0.0
2017-Nov-16 03:30N 53°33' E 009°59'0 0.0
2017-Nov-16 03:00N 53°33' E 009°59'0 0.0
2017-Nov-16 02:30N 53°33' E 009°59'0 0.0
2017-Nov-16 02:00N 53°33' E 009°59'0 0.0
2017-Nov-16 01:30N 53°33' E 009°59'0 0.0
2017-Nov-16 01:00N 53°33' E 009°59'0 0.0
2017-Nov-16 00:30N 53°33' E 009°59'0 0.0
2017-Nov-16 00:00N 53°33' E 009°59'0 0.0
2017-Nov-15 23:30N 53°33' E 009°59'0 0.0
2017-Nov-15 23:00N 53°33' E 009°59'0 0.0
2017-Nov-15 22:30N 53°33' E 009°59'0 0.0
2017-Nov-15 22:00N 53°33' E 009°59'0 0.0
2017-Nov-15 21:30N 53°33' E 009°59'0 0.0
2017-Nov-15 21:00N 53°33' E 009°59'0 0.0
2017-Nov-15 20:30N 53°33' E 009°59'0 0.0
2017-Nov-15 20:00N 53°33' E 009°59'0 0.0
2017-Nov-15 19:30N 53°33' E 009°59'0 0.0
2017-Nov-15 19:00N 53°33' E 009°59'0 0.0
2017-Nov-15 18:30N 53°33' E 009°59'0 0.0
2017-Nov-15 18:00N 53°33' E 009°59'0 0.0
2017-Nov-15 17:30N 53°33' E 009°59'0 0.0
2017-Nov-15 17:00N 53°33' E 009°59'0 0.0
2017-Nov-15 16:30N 53°33' E 009°59'0 0.0
2017-Nov-15 16:00N 53°33' E 009°59'0 0.0
2017-Nov-15 15:30N 53°33' E 009°59'0 0.0
2017-Nov-15 15:00N 53°33' E 009°59'0 0.0
2017-Nov-15 14:30N 53°33' E 009°59'0 0.0
2017-Nov-15 13:59N 53°33' E 009°59'0 0.0
2017-Nov-15 13:29N 53°33' E 009°59'0 0.0
2017-Nov-15 12:59N 53°33' E 009°59'0 0.0
2017-Nov-15 12:29N 53°33' E 009°59'0 0.0
2017-Nov-15 11:56N 53°33' E 009°59'0 0.0
2017-Nov-15 11:29N 53°33' E 009°59'0 0.0
2017-Nov-15 10:59N 53°33' E 009°59'0 0.0
2017-Nov-15 10:29N 53°33' E 009°59'0 0.0
2017-Nov-15 09:59N 53°33' E 009°59'0 0.0
2017-Nov-15 09:29N 53°33' E 009°59'0 0.0
2017-Nov-15 08:59N 53°33' E 009°59'0 0.0
2017-Nov-15 08:29N 53°33' E 009°59'0 0.0
2017-Nov-15 07:59N 53°33' E 009°59'0 0.0
2017-Nov-15 07:29N 53°33' E 009°59'0 0.0
2017-Nov-15 06:59N 53°33' E 009°59'0 0.0
2017-Nov-15 06:29N 53°33' E 009°59'0 0.0
2017-Nov-15 05:59N 53°33' E 009°59'0 0.0
2017-Nov-15 05:29N 53°33' E 009°59'0 0.0
2017-Nov-15 04:59N 53°33' E 009°59'0 0.0
2017-Nov-15 04:29N 53°33' E 009°59'0 0.0
2017-Nov-15 03:59N 53°33' E 009°59'0 0.0
2017-Nov-15 03:29N 53°33' E 009°59'0 0.0
2017-Nov-15 02:59N 53°33' E 009°59'0 0.0
2017-Nov-15 02:29N 53°33' E 009°59'0 0.0
2017-Nov-15 01:59N 53°33' E 009°59'0 0.0
2017-Nov-15 01:29N 53°33' E 009°59'0 0.0
2017-Nov-15 00:59N 53°33' E 009°59'0 0.0
2017-Nov-15 00:29N 53°33' E 009°59'0 0.0
2017-Nov-14 23:59N 53°33' E 009°59'0 0.0
2017-Nov-14 23:29N 53°33' E 009°59'0 0.0
2017-Nov-14 22:59N 53°33' E 009°59'0 0.0
2017-Nov-14 22:29N 53°33' E 009°59'0 0.0
2017-Nov-14 21:59N 53°33' E 009°59'0 0.0
2017-Nov-14 21:29N 53°33' E 009°59'0 0.0
2017-Nov-14 20:59N 53°33' E 009°59'0 0.0
2017-Nov-14 20:29N 53°33' E 009°59'0 0.0
2017-Nov-14 19:59N 53°33' E 009°59'0 0.0
2017-Nov-14 19:29N 53°33' E 009°59'0 0.0
2017-Nov-14 18:59N 53°33' E 009°59'0 0.0
2017-Nov-14 18:29N 53°33' E 009°59'0 0.0
2017-Nov-14 17:56N 53°33' E 009°59'0 0.0
2017-Nov-14 17:29N 53°33' E 009°59'0 0.0
2017-Nov-14 16:59N 53°33' E 009°59'0 0.0
2017-Nov-14 16:29N 53°33' E 009°59'0 0.0
2017-Nov-14 15:59N 53°33' E 009°59'0 0.0
2017-Nov-14 15:29N 53°33' E 009°59'0 0.0
2017-Nov-14 14:59N 53°33' E 009°59'0 0.0
2017-Nov-14 14:29N 53°33' E 009°59'0 0.0
2017-Nov-14 13:59N 53°33' E 009°59'0 0.0
2017-Nov-14 13:29N 53°33' E 009°59'0 0.0
2017-Nov-14 12:59N 53°33' E 009°59'0 0.0
2017-Nov-14 12:29N 53°33' E 009°59'0 0.0
2017-Nov-14 11:59N 53°33' E 009°59'0 0.0
2017-Nov-14 11:29N 53°33' E 009°59'0 0.0
2017-Nov-14 10:59N 53°33' E 009°59'0 0.0
2017-Nov-14 10:29N 53°33' E 009°59'0 0.0
2017-Nov-14 09:59N 53°33' E 009°59'0 0.0
2017-Nov-14 09:29N 53°33' E 009°59'0 0.0
2017-Nov-14 08:59N 53°33' E 009°59'0 0.0
2017-Nov-14 08:29N 53°33' E 009°59'0 0.0
2017-Nov-14 07:59N 53°33' E 009°59'0 0.0
2017-Nov-14 07:29N 53°33' E 009°59'0 0.0
2017-Nov-14 06:59N 53°33' E 009°59'0 0.0
2017-Nov-14 06:29N 53°33' E 009°59'0 0.0
2017-Nov-14 05:59N 53°33' E 009°59'0 0.0
2017-Nov-14 05:29N 53°33' E 009°59'0 0.0
2017-Nov-14 04:59N 53°33' E 009°59'0 0.0
2017-Nov-14 04:29N 53°33' E 009°59'0 0.0
2017-Nov-14 03:59N 53°33' E 009°59'0 0.0
2017-Nov-14 03:29N 53°33' E 009°59'0 0.0
2017-Nov-14 02:59N 53°33' E 009°59'0 0.0
2017-Nov-14 02:29N 53°33' E 009°59'0 0.0
2017-Nov-14 01:59N 53°33' E 009°59'0 0.0
2017-Nov-14 01:29N 53°33' E 009°59'0 0.0
2017-Nov-14 00:59N 53°33' E 009°59'0 0.0
2017-Nov-14 00:29N 53°33' E 009°59'0 0.0
2017-Nov-13 23:59N 53°33' E 009°59'0 0.0
2017-Nov-13 23:29N 53°33' E 009°59'0 0.0
2017-Nov-13 22:59N 53°33' E 009°59'0 0.0
2017-Nov-13 22:29N 53°33' E 009°59'0 0.0
2017-Nov-13 21:59N 53°33' E 009°59'0 0.0
2017-Nov-13 01:58N 53°33' E 009°59'0 0.0
2017-Nov-13 01:29N 53°33' E 009°59'0 0.0
2017-Nov-13 00:58N 53°33' E 009°59'0 0.0
2017-Nov-13 00:28N 53°33' E 009°59'0 0.0
2017-Nov-12 23:59N 53°33' E 009°59'0 0.0
2017-Nov-12 23:28N 53°33' E 009°59'0 0.0
2017-Nov-12 22:58N 53°33' E 009°59'0 0.0
2017-Nov-12 22:28N 53°33' E 009°59'0 0.0
2017-Nov-12 21:58N 53°33' E 009°59'0 0.0
2017-Nov-12 21:28N 53°33' E 009°59'0 0.0
2017-Nov-12 20:58N 53°33' E 009°59'0 0.0
2017-Nov-12 20:29N 53°33' E 009°59'0 0.0
2017-Nov-12 19:58N 53°33' E 009°59'0 0.0
2017-Nov-12 19:28N 53°33' E 009°59'0 0.1
2017-Nov-12 19:00N 53°33' E 009°59'2 3.8
2017-Nov-12 18:30N 53°32' E 009°56'3 6.9
2017-Nov-12 18:01N 53°33' E 009°50'3 5.9
2017-Nov-12 17:30N 53°34' E 009°45'2 3.8
2017-Nov-12 17:00N 53°34' E 009°42'0 0.3
2017-Nov-12 16:30N 53°34' E 009°42'4 7.4
2017-Nov-12 16:00N 53°33' E 009°48'4 7.4
2017-Nov-12 15:30N 53°33' E 009°54'3 5.5
2017-Nov-12 15:00N 53°33' E 009°59'0 0.0
2017-Nov-12 14:31N 53°33' E 009°59'0 0.2
2017-Nov-12 14:01N 53°33' E 009°59'3 6.1
2017-Nov-12 13:31N 53°32' E 009°54'2 4.4
2017-Nov-12 13:01N 53°33' E 009°50'2 3.2
2017-Nov-12 12:31N 53°33' E 009°47'2 3.2
2017-Nov-12 12:00N 53°34' E 009°45'1 2.6
2017-Nov-12 11:31N 53°34' E 009°43'2 4.2
2017-Nov-12 11:01N 53°34' E 009°46'4 8.7
2017-Nov-12 10:30N 53°33' E 009°53'3 6.8
2017-Nov-12 10:00N 53°33' E 009°59'0 0.0
2017-Nov-12 09:29N 53°33' E 009°59'0 0.0
2017-Nov-12 08:59N 53°33' E 009°59'0 0.0
2017-Nov-12 08:29N 53°33' E 009°59'0 0.0
2017-Nov-12 07:59N 53°33' E 009°59'0 0.1
2017-Nov-12 07:30N 53°33' E 009°59'0 0.0
2017-Nov-12 07:00N 53°33' E 009°59'0 0.0
2017-Nov-12 06:30N 53°33' E 009°59'0 0.0
2017-Nov-12 06:00N 53°33' E 009°59'0 0.0
2017-Nov-12 05:30N 53°33' E 009°59'0 0.0
2017-Nov-12 05:00N 53°33' E 009°59'0 0.0
2017-Nov-12 04:30N 53°33' E 009°59'0 0.0
2017-Nov-12 04:00N 53°33' E 009°59'0 0.0
2017-Nov-12 03:30N 53°33' E 009°59'0 0.0
2017-Nov-12 03:00N 53°33' E 009°59'0 0.0
2017-Nov-12 02:30N 53°33' E 009°59'0 0.0
2017-Nov-12 02:00N 53°33' E 009°59'0 0.0
2017-Nov-12 01:27N 53°33' E 009°59'0 0.0
2017-Nov-12 01:00N 53°33' E 009°59'0 0.0
2017-Nov-12 00:27N 53°33' E 009°59'0 0.0
2017-Nov-12 00:00N 53°33' E 009°59'0 0.0
2017-Nov-11 23:30N 53°33' E 009°59'0 0.0
2017-Nov-11 23:00N 53°33' E 009°59'0 0.0
2017-Nov-11 22:30N 53°33' E 009°59'0 0.0
2017-Nov-11 22:00N 53°33' E 009°59'0 0.0
2017-Nov-11 21:30N 53°33' E 009°59'0 0.0
2017-Nov-11 21:00N 53°33' E 009°59'0 0.0
2017-Nov-11 20:30N 53°33' E 009°59'0 0.0
2017-Nov-11 20:00N 53°33' E 009°59'0 0.0
2017-Nov-11 19:30N 53°33' E 009°59'0 0.0
2017-Nov-11 19:00N 53°33' E 009°59'0 0.0
2017-Nov-11 18:30N 53°33' E 009°59'0 0.0
2017-Nov-11 18:00N 53°33' E 009°59'0 0.0
2017-Nov-11 17:30N 53°33' E 009°59'0 0.0
2017-Nov-11 17:00N 53°33' E 009°59'0 0.0
2017-Nov-11 16:30N 53°33' E 009°59'0 0.0
2017-Nov-11 16:00N 53°33' E 009°59'0 0.0
2017-Nov-11 15:30N 53°33' E 009°59'0 0.0
2017-Nov-11 15:00N 53°33' E 009°59'0 0.0
2017-Nov-11 14:30N 53°33' E 009°59'0 0.0
2017-Nov-11 14:00N 53°33' E 009°59'0 0.0
2017-Nov-11 13:30N 53°33' E 009°59'0 0.0
2017-Nov-11 13:00N 53°33' E 009°59'0 0.0
2017-Nov-11 12:30N 53°33' E 009°59'0 0.0
2017-Nov-11 12:00N 53°33' E 009°59'0 0.0
2017-Nov-11 11:30N 53°33' E 009°59'0 0.0
2017-Nov-11 11:00N 53°33' E 009°59'0 0.0
2017-Nov-11 10:30N 53°33' E 009°59'0 0.0
2017-Nov-11 10:00N 53°33' E 009°59'0 0.0
2017-Nov-11 09:30N 53°33' E 009°59'0 0.0
2017-Nov-11 09:00N 53°33' E 009°59'0 0.0
2017-Nov-11 08:30N 53°33' E 009°59'0 0.0
2017-Nov-11 08:00N 53°33' E 009°59'0 0.0
2017-Nov-11 07:30N 53°33' E 009°59'0 0.0
2017-Nov-11 07:00N 53°33' E 009°59'0 0.0
2017-Nov-11 06:30N 53°33' E 009°59'0 0.0
2017-Nov-11 06:00N 53°33' E 009°59'0 0.0
2017-Nov-11 05:30N 53°33' E 009°59'0 0.0
2017-Nov-11 05:00N 53°33' E 009°59'0 0.0
2017-Nov-11 04:30N 53°33' E 009°59'0 0.0
2017-Nov-11 04:00N 53°33' E 009°59'0 0.0
2017-Nov-11 03:30N 53°33' E 009°59'0 0.0
2017-Nov-11 03:00N 53°33' E 009°59'0 0.0
2017-Nov-11 02:30N 53°33' E 009°59'0 0.0
2017-Nov-11 02:00N 53°33' E 009°59'0 0.0
2017-Nov-11 01:30N 53°33' E 009°59'0 0.0
2017-Nov-11 01:00N 53°33' E 009°59'0 0.0
2017-Nov-11 00:30N 53°33' E 009°59'0 0.0
2017-Nov-11 00:00N 53°33' E 009°59'0 0.0
2017-Nov-10 23:24N 53°33' E 009°59'0 0.0
2017-Nov-10 23:00N 53°33' E 009°59'0 0.0
2017-Nov-10 22:27N 53°33' E 009°59'0 0.0
2017-Nov-10 22:00N 53°33' E 009°59'0 0.0
2017-Nov-10 21:30N 53°33' E 009°59'0 0.0
2017-Nov-10 21:00N 53°33' E 009°59'0 0.0
2017-Nov-10 20:30N 53°33' E 009°59'0 0.0
2017-Nov-10 20:00N 53°33' E 009°59'0 0.0
2017-Nov-10 19:30N 53°33' E 009°59'0 0.0
2017-Nov-10 19:00N 53°33' E 009°59'0 0.0
2017-Nov-10 18:30N 53°33' E 009°59'0 0.0
2017-Nov-10 18:00N 53°33' E 009°59'0 0.0
2017-Nov-10 17:30N 53°33' E 009°59'0 0.0
2017-Nov-10 17:00N 53°33' E 009°59'0 0.0
2017-Nov-10 16:30N 53°33' E 009°59'0 0.0
2017-Nov-10 16:00N 53°33' E 009°59'0 0.0
2017-Nov-10 15:30N 53°33' E 009°59'0 0.0
2017-Nov-10 15:00N 53°33' E 009°59'0 0.0
2017-Nov-10 14:30N 53°33' E 009°59'0 0.0
2017-Nov-10 14:00N 53°33' E 009°59'0 0.0
2017-Nov-10 13:30N 53°33' E 009°59'0 0.0
2017-Nov-10 13:00N 53°33' E 009°59'0 0.0
2017-Nov-10 12:30N 53°33' E 009°59'0 0.0
2017-Nov-10 12:00N 53°33' E 009°59'0 0.0
2017-Nov-10 11:30N 53°33' E 009°59'0 0.0
2017-Nov-10 11:00N 53°33' E 009°59'0 0.0
2017-Nov-10 10:30N 53°33' E 009°59'0 0.0
2017-Nov-10 10:00N 53°33' E 009°59'0 0.0
2017-Nov-10 09:30N 53°33' E 009°59'0 0.0
2017-Nov-10 09:00N 53°33' E 009°59'0 0.0
2017-Nov-10 08:30N 53°33' E 009°59'0 0.0
2017-Nov-10 08:00N 53°33' E 009°59'0 0.0
2017-Nov-10 07:30N 53°33' E 009°59'0 0.0
2017-Nov-10 07:00N 53°33' E 009°59'0 0.0
2017-Nov-10 06:30N 53°33' E 009°59'0 0.0
2017-Nov-10 06:00N 53°33' E 009°59'0 0.0
2017-Nov-10 05:30N 53°33' E 009°59'0 0.0
2017-Nov-10 05:00N 53°33' E 009°59'0 0.0
2017-Nov-10 04:30N 53°33' E 009°59'0 0.0
2017-Nov-10 04:00N 53°33' E 009°59'0 0.0
2017-Nov-10 03:30N 53°33' E 009°59'0 0.0
2017-Nov-10 03:00N 53°33' E 009°59'0 0.0
2017-Nov-10 02:30N 53°33' E 009°59'0 0.0
2017-Nov-10 02:00N 53°33' E 009°59'0 0.0
2017-Nov-10 01:30N 53°33' E 009°59'0 0.0
2017-Nov-10 01:00N 53°33' E 009°59'0 0.0
2017-Nov-10 00:30N 53°33' E 009°59'  

Dump ship's entire track history